Latest Weather Observations for Ngayawili (Elcho Island)

IDD60801

Issued at 10:31 am CST Sunday 26 April 2015 (issued every 30 minutes, with the page automatically refreshed every 10 minutes)

About weather observations | Map of weather stations | Latest weather observations for NT | Other Formats
Station Details ID: 014517 Name: NGAYAWILI Lat: -12.00 Lon: 135.57 Height: 8.1 m
Data from the previous 72 hours. | See also: Recent months at Ngayawili (Elcho Island)
Date/Time
CST
Temp
°C
App
Temp
°C
Dew
Point
Rel
Hum
%
Delta-T
°C
Wind Press
QNH
hPa
Press
MSL
hPa
Rain
since 9 am
mm
Dir
 
Spd
km/h
Gust
km/h
Spd
kts
Gust
kts
26/10:30am 29.0 28.9 20.7 61 5.5 SSE 22 33 12 18 1012.9 1012.8 0.0
26/10:00am 28.4 28.3 19.6 59 5.7 SSE 19 30 10 16 1013.0 1012.9 0.0
26/09:30am 27.6 27.7 19.1 59 5.5 SSE 17 24 9 13 1012.8 1012.7 0.0
26/09:00am 26.9 28.2 19.3 63 4.9 SE 11 19 6 10 1012.7 1012.6 0.0
26/08:30am 25.7 26.6 19.3 67 4.1 SSE 13 20 7 11 1012.4 1012.3 0.0
26/08:00am 24.0 25.3 19.3 75 3.0 SSE 11 15 6 8 1012.0 1011.9 0.0
26/07:30am 22.6 24.1 19.8 84 1.8 SSE 11 17 6 9 1011.9 1011.8 0.0
26/07:00am 21.0 22.9 19.8 93 0.8 SSE 9 11 5 6 1011.6 1011.5 0.0
26/06:30am 20.8 23.0 19.5 92 0.8 SSE 7 9 4 5 1011.5 1011.4 0.0
26/06:00am 21.0 23.2 19.6 92 0.9 S 7 9 4 5 1011.3 1011.2 0.0
26/05:30am 21.2 23.5 19.8 92 0.9 SSE 7 9 4 5 1011.2 1011.1 0.0
26/05:00am 21.3 23.3 19.9 92 0.9 S 9 11 5 6 1011.2 1011.1 0.0
26/04:30am 21.2 24.6 19.3 89 1.2 CALM 0 0 0 0 1011.0 1010.9 0.0
26/04:00am 22.9 26.6 19.9 83 1.9 CALM 0 0 0 0 1010.9 1010.8 0.0
26/03:30am 23.7 27.5 20.2 81 2.3 CALM 0 0 0 0 1010.9 1010.8 0.0
26/03:00am 23.9 26.5 20.0 79 2.5 ESE 6 9 3 5 1010.9 1010.8 0.0
26/02:30am 24.0 26.4 20.1 79 2.5 SE 7 13 4 7 1010.9 1010.8 0.0
26/02:00am 23.5 26.0 19.8 80 2.4 SE 6 9 3 5 1011.1 1011.0 0.0
26/01:30am 24.1 26.7 20.0 78 2.7 SE 6 9 3 5 1011.3 1011.2 0.0
26/01:00am 23.9 26.2 19.8 78 2.6 SE 7 11 4 6 1011.4 1011.3 0.0
26/12:30am 23.7 25.4 19.4 77 2.8 SE 9 11 5 6 1011.5 1011.4 0.0
26/12:00am 24.3 25.9 19.1 73 3.3 SSE 9 11 5 6 1011.8 1011.7 0.0
 
Date/Time
CST
Temp
°C
App
Temp
°C
Dew
Point
Rel
Hum
%
Delta-T
°C
Wind Press
QNH
hPa
Press
MSL
hPa
Rain
since 9 am
mm
Dir
 
Spd
km/h
Gust
km/h
Spd
kts
Gust
kts
25/11:30pm 24.6 25.9 18.5 69 3.9 SSE 9 15 5 8 1012.2 1012.1 0.0
25/11:00pm 25.2 25.7 18.4 66 4.3 SSE 13 17 7 9 1012.1 1012.0 0.0
25/10:30pm 25.7 26.8 18.9 66 4.3 SSE 11 15 6 8 1012.3 1012.2 0.0
25/10:00pm 26.3 27.2 18.4 61 5.0 SE 11 17 6 9 1012.3 1012.2 0.0
25/09:30pm 26.7 27.3 18.6 61 5.2 SSE 13 19 7 10 1012.0 1011.9 0.0
25/09:00pm 27.0 27.0 18.0 58 5.7 SE 15 22 8 12 1011.9 1011.8 0.0
25/08:30pm 27.3 27.4 17.5 55 6.2 SE 13 22 7 12 1011.8 1011.7 0.0
25/08:00pm 27.4 27.7 17.0 53 6.5 SE 11 15 6 8 1011.4 1011.3 0.0
25/07:30pm 28.0 27.6 16.3 49 7.3 ESE 13 20 7 11 1010.9 1010.8 0.0
25/07:00pm 28.2 28.7 17.4 52 6.8 SE 11 19 6 10 1010.4 1010.3 0.0
25/06:30pm 28.8 29.3 18.3 53 6.7 ESE 13 20 7 11 1010.1 1010.0 0.0
25/06:00pm 29.5 30.2 18.0 50 7.3 ESE 11 20 6 11 1009.8 1009.7 0.0
25/05:30pm 30.3 30.1 17.7 46 8.0 E 15 24 8 13 1009.5 1009.4 0.0
25/05:00pm 30.9 30.5 17.2 43 8.7 ESE 15 22 8 12 1009.1 1009.0 0.0
25/04:30pm 31.2 30.0 16.0 40 9.5 ESE 17 28 9 15 1008.8 1008.7 0.0
25/04:00pm 31.9 31.0 15.8 38 10.0 ESE 15 26 8 14 1008.5 1008.4 0.0
25/03:30pm 32.2 30.7 15.2 35 10.5 ESE 17 28 9 15 1008.4 1008.3 0.0
25/03:00pm 32.1 31.6 16.8 40 9.7 ESE 15 24 8 13 1008.5 1008.4 0.0
25/02:30pm 31.9 31.1 17.0 41 9.5 SE 17 30 9 16 1008.9 1008.8 0.0
25/02:00pm 31.8 30.1 15.7 37 10.0 ESE 19 30 10 16 1009.2 1009.1 0.0
25/01:30pm 31.6 30.2 15.5 37 10.0 SE 17 28 9 15 1009.6 1009.5 0.0
25/01:00pm 31.4 29.4 15.4 38 9.9 SE 20 32 11 17 1009.9 1009.8 0.0
25/12:30pm 31.2 30.3 16.8 42 9.1 ESE 17 28 9 15 1009.9 1009.8 0.0
25/12:00pm 30.2 28.9 16.9 44 8.4 SE 19 28 10 15 1010.3 1010.2 0.0
25/11:30am 30.3 29.6 17.4 46 8.2 SE 17 26 9 14 1010.7 1010.6 0.0
25/11:00am 29.7 28.6 17.8 48 7.6 SE 20 30 11 16 1011.2 1011.1 0.0
25/10:30am 29.4 28.5 16.9 47 7.9 ESE 17 26 9 14 1011.4 1011.3 0.0
25/10:00am 28.8 28.8 18.0 52 6.9 SE 15 22 8 12 1011.5 1011.4 0.0
25/09:30am 28.0 29.4 20.3 63 5.1 SE 13 20 7 11 1011.4 1011.3 0.0
25/09:00am 27.0 28.9 20.6 68 4.2 ESE 11 19 6 10 1011.3 1011.2 0.0
25/08:30am 26.0 29.0 21.9 78 2.7 ESE 9 13 5 7 1011.1 1011.0 0.0
25/08:00am 24.3 27.8 22.2 88 1.4 ESE 7 9 4 5 1010.7 1010.6 0.0
25/07:30am 21.5 24.1 20.5 94 0.6 SSE 7 9 4 5 1010.5 1010.4 0.0
25/07:00am 19.6 21.4 18.4 93 0.7 SSE 6 7 3 4 1010.4 1010.3 0.0
25/06:30am 20.3 23.2 19.1 93 0.8 S 2 7 1 4 1010.3 1010.2 0.0
25/06:00am 20.7 24.3 19.7 94 0.6 CALM 0 0 0 0 1010.1 1010.0 0.0
25/05:30am 20.7 24.1 19.4 92 0.8 CALM 0 0 0 0 1009.8 1009.7 0.0
25/05:00am 21.8 25.5 19.9 89 1.2 CALM 0 0 0 0 1009.9 1009.8 0.0
25/04:30am 22.6 26.3 19.9 85 1.7 CALM 0 0 0 0 1010.0 1009.9 0.0
25/04:00am 23.0 26.7 20.0 83 1.9 CALM 0 0 0 0 1010.0 1009.9 0.0
25/03:30am 23.4 26.4 19.3 78 2.6 ESE 2 6 1 3 1010.2 1010.1 0.0
25/03:00am 24.1 26.2 19.4 75 3.0 ESE 7 9 4 5 1010.0 1009.9 0.0
25/02:30am 24.3 26.3 19.1 73 3.3 ESE 7 11 4 6 1009.9 1009.8 0.0
25/02:00am 24.4 25.9 19.0 72 3.4 ESE 9 13 5 7 1009.7 1009.6 0.0
25/01:30am 24.8 26.3 19.0 70 3.7 ESE 9 13 5 7 1010.0 1009.9 0.0
25/01:00am 25.0 26.1 18.9 69 3.9 ESE 11 15 6 8 1010.1 1010.0 0.0
25/12:30am 25.2 25.9 18.9 68 4.0 ESE 13 17 7 9 1010.2 1010.1 0.0
25/12:00am 25.4 26.3 19.3 69 3.9 ESE 13 17 7 9 1010.6 1010.5 0.0
 
Date/Time
CST
Temp
°C
App
Temp
°C
Dew
Point
Rel
Hum
%
Delta-T
°C
Wind Press
QNH
hPa
Press
MSL
hPa
Rain
since 9 am
mm
Dir
 
Spd
km/h
Gust
km/h
Spd
kts
Gust
kts
24/11:30pm 25.5 26.8 19.4 69 3.9 ESE 11 17 6 9 1010.8 1010.7 0.0
24/11:00pm 25.6 26.5 19.3 68 4.0 ESE 13 17 7 9 1011.0 1010.9 0.0
24/10:30pm 25.8 26.6 19.0 66 4.4 ESE 13 17 7 9 1011.0 1010.9 0.0
24/10:00pm 26.0 26.9 18.4 63 4.8 ESE 11 17 6 9 1011.1 1011.0 0.0
24/09:30pm 26.3 27.0 17.9 60 5.3 SE 11 13 6 7 1011.1 1011.0 0.0
24/09:00pm 26.7 27.7 17.7 57 5.7 ESE 9 15 5 8 1011.0 1010.9 0.0
24/08:30pm 27.0 27.5 17.5 56 6.0 ESE 11 15 6 8 1010.9 1010.8 0.0
24/08:00pm 27.1 27.7 16.7 53 6.5 ESE 9 13 5 7 1010.4 1010.3 0.0
24/07:30pm 27.8 28.1 16.1 49 7.2 E 9 15 5 8 1010.0 1009.9 0.0
24/07:00pm 28.0 28.4 15.3 46 7.7 E 7 11 4 6 1009.6 1009.5 0.0
24/06:30pm 28.8 28.7 15.0 43 8.4 E 9 13 5 7 1009.2 1009.1 0.0
24/06:00pm 30.0 29.2 14.1 37 9.6 E 11 19 6 10 1008.7 1008.6 0.0
24/05:30pm 30.8 29.7 14.4 36 10.0 E 13 19 7 10 1008.4 1008.3 0.0
24/05:00pm 31.4 30.1 13.6 33 10.7 ESE 13 20 7 11 1008.4 1008.3 0.0
24/04:30pm 31.9 30.4 13.2 32 11.2 ESE 13 22 7 12 1008.2 1008.1 0.0
24/04:00pm 32.0 30.5 14.2 34 10.8 SE 15 24 8 13 1008.2 1008.1 0.0
24/03:30pm 32.0 29.9 14.6 34 10.7 SE 19 30 10 16 1008.2 1008.1 0.0
24/03:00pm 32.1 31.6 16.8 40 9.7 SE 15 26 8 14 1008.2 1008.1 0.0
24/02:30pm 31.7 30.8 16.8 40 9.4 SE 17 26 9 14 1008.4 1008.3 0.0
24/02:00pm 31.7 31.2 16.8 40 9.4 SE 15 24 8 13 1008.7 1008.6 0.0
24/01:30pm 31.5 29.9 15.9 39 9.7 SSE 19 30 10 16 1009.1 1009.0 0.0
24/01:00pm 31.2 29.7 15.2 38 9.9 SSE 17 28 9 15 1009.4 1009.3 0.0
24/12:30pm 31.4 29.9 15.4 38 9.9 SE 17 24 9 13 1009.7 1009.6 0.0
24/12:00pm 31.3 30.8 16.8 41 9.2 SE 15 22 8 12 1010.2 1010.1 0.0
24/11:30am 30.5 29.9 17.6 46 8.2 SE 17 26 9 14 1010.7 1010.6 0.0
24/11:00am 30.7 30.2 17.7 45 8.3 SE 17 24 9 13 1011.0 1010.9 0.0
24/10:30am 30.1 29.5 17.5 46 8.0 ESE 17 26 9 14 1011.4 1011.3 0.0
24/10:00am 29.6 30.5 19.3 54 6.7 SE 13 22 7 12 1011.4 1011.3 0.0
24/09:30am 28.9 31.0 21.7 65 4.8 SE 13 19 7 10 1011.3 1011.2 0.0
24/09:00am 28.1 30.5 22.3 70 3.9 ESE 13 17 7 9 1011.2 1011.1 0.0
24/08:30am 27.5 31.3 22.7 75 3.3 ESE 7 15 4 8 1011.3 1011.2 0.0
24/08:00am 26.4 31.5 22.7 80 2.5 CALM 0 0 0 0 1011.2 1011.1 0.0
24/07:30am 24.8 29.5 21.9 84 1.9 CALM 0 0 0 0 1010.7 1010.6 0.0
24/07:00am 24.0 27.3 21.5 86 1.7 ESE 6 7 3 4 1010.5 1010.4 0.0
24/06:30am 24.0 27.0 21.3 85 1.8 ESE 7 9 4 5 1010.3 1010.2 0.0
24/06:00am 24.2 26.9 21.3 84 1.9 ESE 9 11 5 6 1010.0 1009.9 0.0
24/05:30am 24.6 27.1 21.1 81 2.3 ESE 9 13 5 7 1009.9 1009.8 0.0
24/05:00am 24.8 26.9 20.9 79 2.6 ESE 11 15 6 8 1009.7 1009.6 0.0
24/04:30am 24.8 26.8 20.7 78 2.7 ESE 11 15 6 8 1009.7 1009.6 0.0
24/04:00am 25.2 27.2 20.7 76 2.9 ESE 11 17 6 9 1009.9 1009.8 0.0
24/03:30am 25.3 26.9 20.8 76 3.0 ESE 13 17 7 9 1009.6 1009.5 0.0
24/03:00am 25.4 27.5 20.9 76 3.0 ESE 11 17 6 9 1009.6 1009.5 0.0
24/02:30am 25.5 27.2 21.0 76 3.0 SE 13 17 7 9 1009.8 1009.7 0.0
24/02:00am 25.7 27.4 20.9 75 3.2 SE 13 20 7 11 1009.9 1009.8 0.0
24/01:30am 25.9 28.0 20.9 74 3.3 ESE 11 17 6 9 1010.0 1009.9 0.0
24/01:00am 25.9 28.0 20.9 74 3.3 ESE 11 15 6 8 1010.1 1010.0 0.0
24/12:30am 26.0 27.6 20.8 73 3.4 ESE 13 17 7 9 1010.3 1010.2 0.0
24/12:00am 26.3 27.9 20.8 71 3.6 ESE 13 20 7 11 1010.4 1010.3 0.0
 
Date/Time
CST
Temp
°C
App
Temp
°C
Dew
Point
Rel
Hum
%
Delta-T
°C
Wind Press
QNH
hPa
Press
MSL
hPa
Rain
since 9 am
mm
Dir
 
Spd
km/h
Gust
km/h
Spd
kts
Gust
kts
23/11:30pm 26.4 28.1 20.9 72 3.6 ESE 13 17 7 9 1010.6 1010.5 0.0
23/11:00pm 26.6 28.3 20.9 71 3.8 ESE 13 20 7 11 1010.5 1010.4 0.0
23/10:30pm 26.8 28.5 20.9 70 3.9 ESE 13 19 7 10 1010.7 1010.6 0.0
23/10:00pm 27.1 28.3 20.7 68 4.2 SE 15 22 8 12 1010.8 1010.7 0.0
23/09:30pm 27.2 29.1 20.5 67 4.4 SE 11 17 6 9 1010.8 1010.7 0.0
23/09:00pm 27.5 29.0 20.6 66 4.5 SE 13 20 7 11 1010.5 1010.4 0.0
23/08:30pm 27.9 29.6 21.0 66 4.6 SE 13 20 7 11 1010.3 1010.2 0.0
23/08:00pm 28.0 30.5 21.1 66 4.6 ESE 9 15 5 8 1010.0 1009.9 0.0
23/07:30pm 28.1 30.4 20.6 63 5.0 ESE 9 11 5 6 1009.3 1009.2 0.0
23/07:00pm 28.7 30.8 20.2 60 5.6 ESE 9 15 5 8 1008.9 1008.8 0.0
23/06:30pm 29.3 31.4 20.2 58 6.0 ESE 9 13 5 7 1008.7 1008.6 0.0
23/06:00pm 30.2 32.2 19.9 54 6.8 ESE 9 17 5 9 1008.5 1008.4 0.0
23/05:30pm 30.6 32.8 20.5 54 6.7 ESE 9 17 5 9 1008.2 1008.1 0.0
23/05:00pm 31.1 32.3 19.8 51 7.4 ESE 13 20 7 11 1008.1 1008.0 0.0
23/04:30pm 31.5 32.4 20.1 50 7.6 ESE 15 26 8 14 1008.1 1008.0 0.0
23/04:00pm 31.7 32.0 19.7 49 7.9 SE 17 24 9 13 1008.1 1008.0 0.0
23/03:30pm 31.8 32.6 19.8 49 7.9 ESE 15 24 8 13 1007.9 1007.8 0.0
23/03:00pm 32.1 32.8 19.7 48 8.2 ESE 15 28 8 15 1008.1 1008.0 0.0
23/02:30pm 32.3 32.4 19.9 48 8.2 SE 19 32 10 17 1008.2 1008.1 0.0
23/02:00pm 32.7 33.1 19.9 46 8.5 ESE 17 28 9 15 1008.5 1008.4 0.0
23/01:30pm 31.9 32.5 20.2 50 7.8 ESE 17 28 9 15 1008.8 1008.7 0.0
23/01:00pm 31.5 31.4 19.5 49 7.9 ESE 19 32 10 17 1009.1 1009.0 0.0
23/12:30pm 31.6 31.7 19.2 47 8.1 SE 17 32 9 17 1009.2 1009.1 0.0
23/12:00pm 31.5 31.3 18.5 46 8.4 ESE 17 28 9 15 1009.6 1009.5 0.0
23/11:30am 31.2 31.0 18.5 46 8.2 SE 17 28 9 15 1010.1 1010.0 0.0
23/11:00am 30.7 30.5 18.4 47 7.9 ESE 17 24 9 13 1010.4 1010.3 0.0

Other Formats:

Comma delimited format used in spreadsheet applications
http://www.bom.gov.au/fwo/IDD60801/IDD60801.95146.axf

JavaScript Object Notation format (JSON) in row-major order
http://www.bom.gov.au/fwo/IDD60801/IDD60801.95146.json